sensor_id;sensor_type;location;lat;lon;timestamp;temperature;humidity
21207;DHT22;10761;48.532;8.026;2022-09-03T06:31:26;18.00;99.90
21207;DHT22;10761;48.532;8.026;2022-09-03T06:33:52;17.90;99.90
21207;DHT22;10761;48.532;8.026;2022-09-03T06:36:19;17.80;99.90
21207;DHT22;10761;48.532;8.026;2022-09-03T06:38:46;17.90;99.90
21207;DHT22;10761;48.532;8.026;2022-09-03T06:41:14;18.20;99.90
21207;DHT22;10761;48.532;8.026;2022-09-03T06:43:50;18.40;99.90
21207;DHT22;10761;48.532;8.026;2022-09-03T06:46:19;18.90;99.90
21207;DHT22;10761;48.532;8.026;2022-09-03T06:48:45;19.40;99.90
21207;DHT22;10761;48.532;8.026;2022-09-03T06:51:14;19.80;99.90
21207;DHT22;10761;48.532;8.026;2022-09-03T06:53:45;20.10;99.90
21207;DHT22;10761;48.532;8.026;2022-09-03T06:56:13;20.20;99.90
21207;DHT22;10761;48.532;8.026;2022-09-03T06:58:43;20.20;99.90
21207;DHT22;10761;48.532;8.026;2022-09-03T07:01:15;20.20;99.90
21207;DHT22;10761;48.532;8.026;2022-09-03T07:03:42;20.20;99.90
21207;DHT22;10761;48.532;8.026;2022-09-03T07:06:13;20.00;99.90
21207;DHT22;10761;48.532;8.026;2022-09-03T07:08:39;19.60;99.90
21207;DHT22;10761;48.532;8.026;2022-09-03T07:11:11;19.60;99.90
21207;DHT22;10761;48.532;8.026;2022-09-03T07:13:42;19.60;99.90
21207;DHT22;10761;48.532;8.026;2022-09-03T07:16:12;19.60;99.90
21207;DHT22;10761;48.532;8.026;2022-09-03T07:18:38;19.60;99.90
21207;DHT22;10761;48.532;8.026;2022-09-03T07:21:06;19.60;99.90
21207;DHT22;10761;48.532;8.026;2022-09-03T07:23:34;19.40;99.90
21207;DHT22;10761;48.532;8.026;2022-09-03T07:26:04;19.40;99.90
21207;DHT22;10761;48.532;8.026;2022-09-03T07:28:30;19.60;99.90
21207;DHT22;10761;48.532;8.026;2022-09-03T07:31:08;20.10;99.90
21207;DHT22;10761;48.532;8.026;2022-09-03T07:33:34;20.50;99.90
21207;DHT22;10761;48.532;8.026;2022-09-03T07:36:06;20.60;99.90
21207;DHT22;10761;48.532;8.026;2022-09-03T07:38:33;20.40;99.90
21207;DHT22;10761;48.532;8.026;2022-09-03T07:41:00;20.40;99.90
21207;DHT22;10761;48.532;8.026;2022-09-03T07:43:34;20.30;99.90
21207;DHT22;10761;48.532;8.026;2022-09-03T07:46:00;20.20;99.90
21207;DHT22;10761;48.532;8.026;2022-09-03T07:48:26;20.00;99.90
21207;DHT22;10761;48.532;8.026;2022-09-03T07:50:51;19.90;99.90
21207;DHT22;10761;48.532;8.026;2022-09-03T07:53:18;19.90;99.90
21207;DHT22;10761;48.532;8.026;2022-09-03T07:55:47;19.70;99.90
21207;DHT22;10761;48.532;8.026;2022-09-03T07:58:13;19.70;99.90
21207;DHT22;10761;48.532;8.026;2022-09-03T08:00:39;19.60;99.90
21207;DHT22;10761;48.532;8.026;2022-09-03T08:03:05;19.30;99.90
21207;DHT22;10761;48.532;8.026;2022-09-03T08:05:34;19.20;99.90
21207;DHT22;10761;48.532;8.026;2022-09-03T08:08:25;19.00;99.90
21207;DHT22;10761;48.532;8.026;2022-09-03T08:11:18;18.80;99.90
21207;DHT22;10761;48.532;8.026;2022-09-03T08:14:13;18.60;99.90
21207;DHT22;10761;48.532;8.026;2022-09-03T08:17:04;18.40;99.90
21207;DHT22;10761;48.532;8.026;2022-09-03T08:42:24;19.80;99.90
21207;DHT22;10761;48.532;8.026;2022-09-03T08:45:01;20.00;99.90
21207;DHT22;10761;48.532;8.026;2022-09-03T08:47:43;20.20;99.90
21207;DHT22;10761;48.532;8.026;2022-09-03T08:50:31;20.50;99.90
21207;DHT22;10761;48.532;8.026;2022-09-03T08:53:20;20.70;99.90
21207;DHT22;10761;48.532;8.026;2022-09-03T08:55:59;20.90;99.90
21207;DHT22;10761;48.532;8.026;2022-09-03T08:58:30;21.50;99.90
21207;DHT22;10761;48.532;8.026;2022-09-03T09:03:52;23.10;99.90
21207;DHT22;10761;48.532;8.026;2022-09-03T09:11:45;23.90;99.90
21207;DHT22;10761;48.532;8.026;2022-09-03T09:17:32;23.50;99.90
21207;DHT22;10761;48.532;8.026;2022-09-03T09:23:03;23.00;99.90
21207;DHT22;10761;48.532;8.026;2022-09-03T09:25:31;22.50;99.90
21207;DHT22;10761;48.532;8.026;2022-09-03T09:30:45;22.60;99.90
21207;DHT22;10761;48.532;8.026;2022-09-03T09:33:12;22.40;99.90
21207;DHT22;10761;48.532;8.026;2022-09-03T09:35:37;22.50;99.90
21207;DHT22;10761;48.532;8.026;2022-09-03T09:38:06;22.90;99.90
21207;DHT22;10761;48.532;8.026;2022-09-03T09:40:37;23.40;99.90
21207;DHT22;10761;48.532;8.026;2022-09-03T09:43:11;23.90;99.90
21207;DHT22;10761;48.532;8.026;2022-09-03T09:45:38;24.50;99.90
21207;DHT22;10761;48.532;8.026;2022-09-03T09:50:42;25.50;99.90
21207;DHT22;10761;48.532;8.026;2022-09-03T09:53:10;25.80;99.90
21207;DHT22;10761;48.532;8.026;2022-09-03T09:58:18;25.20;99.90
21207;DHT22;10761;48.532;8.026;2022-09-03T10:00:54;25.00;99.90
21207;DHT22;10761;48.532;8.026;2022-09-03T10:03:20;24.80;99.90
21207;DHT22;10761;48.532;8.026;2022-09-03T10:05:57;24.70;99.90
21207;DHT22;10761;48.532;8.026;2022-09-03T10:08:25;24.60;99.90
21207;DHT22;10761;48.532;8.026;2022-09-03T10:10:51;24.30;99.90
21207;DHT22;10761;48.532;8.026;2022-09-03T10:13:34;24.10;99.90
21207;DHT22;10761;48.532;8.026;2022-09-03T10:16:05;23.80;99.90
21207;DHT22;10761;48.532;8.026;2022-09-03T10:21:17;23.60;99.90
21207;DHT22;10761;48.532;8.026;2022-09-03T10:26:41;22.90;99.90
21207;DHT22;10761;48.532;8.026;2022-09-03T10:29:11;23.00;99.90
21207;DHT22;10761;48.532;8.026;2022-09-03T10:31:50;22.90;99.90
21207;DHT22;10761;48.532;8.026;2022-09-03T10:42:38;23.10;99.90
21207;DHT22;10761;48.532;8.026;2022-09-03T10:48:14;22.90;99.90
21207;DHT22;10761;48.532;8.026;2022-09-03T10:50:57;23.10;99.90
21207;DHT22;10761;48.532;8.026;2022-09-03T11:02:23;23.30;99.90
21207;DHT22;10761;48.532;8.026;2022-09-03T11:04:55;23.00;99.90
21207;DHT22;10761;48.532;8.026;2022-09-03T11:07:27;22.60;99.90
21207;DHT22;10761;48.532;8.026;2022-09-03T11:10:11;22.40;99.90
21207;DHT22;10761;48.532;8.026;2022-09-03T11:12:39;22.50;99.90
21207;DHT22;10761;48.532;8.026;2022-09-03T11:15:32;22.30;99.90
21207;DHT22;10761;48.532;8.026;2022-09-03T11:18:30;22.10;99.90
21207;DHT22;10761;48.532;8.026;2022-09-03T11:21:04;22.10;99.90
21207;DHT22;10761;48.532;8.026;2022-09-03T11:23:34;21.90;99.90
21207;DHT22;10761;48.532;8.026;2022-09-03T11:26:04;21.70;99.90
21207;DHT22;10761;48.532;8.026;2022-09-03T11:31:17;20.60;99.90
21207;DHT22;10761;48.532;8.026;2022-09-03T11:36:33;20.00;99.90
21207;DHT22;10761;48.532;8.026;2022-09-03T11:38:59;19.70;99.90
21207;DHT22;10761;48.532;8.026;2022-09-03T11:41:31;19.70;99.90
21207;DHT22;10761;48.532;8.026;2022-09-03T11:44:10;19.70;99.90
21207;DHT22;10761;48.532;8.026;2022-09-03T11:46:53;19.80;99.90
21207;DHT22;10761;48.532;8.026;2022-09-03T11:49:31;19.80;99.90
21207;DHT22;10761;48.532;8.026;2022-09-03T11:51:59;20.00;99.90
21207;DHT22;10761;48.532;8.026;2022-09-03T11:54:26;20.00;99.90
21207;DHT22;10761;48.532;8.026;2022-09-03T11:57:11;20.10;99.90
21207;DHT22;10761;48.532;8.026;2022-09-03T11:59:38;20.40;99.90
21207;DHT22;10761;48.532;8.026;2022-09-03T12:02:28;20.70;99.90
21207;DHT22;10761;48.532;8.026;2022-09-03T12:05:03;21.20;99.90
21207;DHT22;10761;48.532;8.026;2022-09-03T12:07:43;21.90;99.90
21207;DHT22;10761;48.532;8.026;2022-09-03T12:15:24;23.10;99.90
21207;DHT22;10761;48.532;8.026;2022-09-03T12:18:09;23.40;99.90
21207;DHT22;10761;48.532;8.026;2022-09-03T12:21:04;24.10;99.90
21207;DHT22;10761;48.532;8.026;2022-09-03T12:26:07;24.30;99.90
21207;DHT22;10761;48.532;8.026;2022-09-03T12:28:37;24.40;99.90
21207;DHT22;10761;48.532;8.026;2022-09-03T12:31:21;24.70;99.90
21207;DHT22;10761;48.532;8.026;2022-09-03T12:33:52;24.70;99.90
21207;DHT22;10761;48.532;8.026;2022-09-03T12:36:19;24.30;99.90
21207;DHT22;10761;48.532;8.026;2022-09-03T12:38:45;24.30;99.90
21207;DHT22;10761;48.532;8.026;2022-09-03T12:41:29;24.00;99.90
21207;DHT22;10761;48.532;8.026;2022-09-03T12:43:57;23.40;99.90
21207;DHT22;10761;48.532;8.026;2022-09-03T12:46:28;23.70;99.90
21207;DHT22;10761;48.532;8.026;2022-09-03T12:49:04;24.10;99.90
21207;DHT22;10761;48.532;8.026;2022-09-03T12:51:37;24.50;99.90
21207;DHT22;10761;48.532;8.026;2022-09-03T12:54:05;24.40;99.90
21207;DHT22;10761;48.532;8.026;2022-09-03T12:56:34;24.10;99.90
21207;DHT22;10761;48.532;8.026;2022-09-03T12:59:11;23.80;99.90
21207;DHT22;10761;48.532;8.026;2022-09-03T13:01:50;23.50;99.90
21207;DHT22;10761;48.532;8.026;2022-09-03T13:04:32;23.30;99.90
21207;DHT22;10761;48.532;8.026;2022-09-03T13:09:35;22.70;99.90
21207;DHT22;10761;48.532;8.026;2022-09-03T13:12:02;22.70;99.90
21207;DHT22;10761;48.532;8.026;2022-09-03T13:14:41;22.50;99.90
21207;DHT22;10761;48.532;8.026;2022-09-03T13:17:29;22.40;99.90
21207;DHT22;10761;48.532;8.026;2022-09-03T13:20:24;22.40;99.90
21207;DHT22;10761;48.532;8.026;2022-09-03T13:26:11;21.90;99.90
21207;DHT22;10761;48.532;8.026;2022-09-03T13:31:49;21.60;99.90
21207;DHT22;10761;48.532;8.026;2022-09-03T13:34:25;21.70;99.90
21207;DHT22;10761;48.532;8.026;2022-09-03T13:39:59;21.40;99.90
21207;DHT22;10761;48.532;8.026;2022-09-03T13:42:41;21.30;99.90
21207;DHT22;10761;48.532;8.026;2022-09-03T13:45:36;21.30;99.90
21207;DHT22;10761;48.532;8.026;2022-09-03T13:48:27;21.40;99.90
21207;DHT22;10761;48.532;8.026;2022-09-03T13:54:04;21.90;99.90
21207;DHT22;10761;48.532;8.026;2022-09-03T13:56:56;22.40;99.90
21207;DHT22;10761;48.532;8.026;2022-09-03T14:00:06;22.40;99.90
21207;DHT22;10761;48.532;8.026;2022-09-03T14:02:49;22.30;99.90
21207;DHT22;10761;48.532;8.026;2022-09-03T14:05:18;22.30;99.90
21207;DHT22;10761;48.532;8.026;2022-09-03T14:16:28;22.10;99.90
21207;DHT22;10761;48.532;8.026;2022-09-03T14:19:14;22.10;99.90
21207;DHT22;10761;48.532;8.026;2022-09-03T14:21:46;21.90;99.90
21207;DHT22;10761;48.532;8.026;2022-09-03T14:26:55;21.90;99.90
21207;DHT22;10761;48.532;8.026;2022-09-03T14:29:30;22.10;99.90
21207;DHT22;10761;48.532;8.026;2022-09-03T14:40:29;25.30;99.90
21207;DHT22;10761;48.532;8.026;2022-09-03T14:43:01;26.60;99.90
21207;DHT22;10761;48.532;8.026;2022-09-03T14:51:43;27.90;99.90
21207;DHT22;10761;48.532;8.026;2022-09-03T15:07:55;27.70;99.90
21207;DHT22;10761;48.532;8.026;2022-09-03T15:10:44;26.70;99.90
21207;DHT22;10761;48.532;8.026;2022-09-03T15:21:32;25.00;99.90
21207;DHT22;10761;48.532;8.026;2022-09-03T15:24:29;24.80;99.90
21207;DHT22;10761;48.532;8.026;2022-09-03T15:43:18;28.40;99.90
21207;DHT22;10761;48.532;8.026;2022-09-03T15:48:24;31.30;99.90
21207;DHT22;10761;48.532;8.026;2022-09-03T15:53:35;31.00;99.90
21207;DHT22;10761;48.532;8.026;2022-09-03T15:56:12;31.20;99.90
21207;DHT22;10761;48.532;8.026;2022-09-03T15:59:11;32.50;99.90
21207;DHT22;10761;48.532;8.026;2022-09-03T16:09:35;28.20;99.90
21207;DHT22;10761;48.532;8.026;2022-09-03T16:14:57;27.70;99.90
21207;DHT22;10761;48.532;8.026;2022-09-03T16:17:30;27.00;99.90
21207;DHT22;10761;48.532;8.026;2022-09-03T16:20:04;26.20;99.90
21207;DHT22;10761;48.532;8.026;2022-09-03T16:22:36;26.10;99.90
21207;DHT22;10761;48.532;8.026;2022-09-03T16:25:13;26.10;99.90
21207;DHT22;10761;48.532;8.026;2022-09-03T16:27:54;27.00;99.90
21207;DHT22;10761;48.532;8.026;2022-09-03T16:38:53;30.60;99.90
21207;DHT22;10761;48.532;8.026;2022-09-03T16:41:30;29.40;99.90
21207;DHT22;10761;48.532;8.026;2022-09-03T16:44:13;28.70;99.90
21207;DHT22;10761;48.532;8.026;2022-09-03T16:47:19;28.80;99.90
21207;DHT22;10761;48.532;8.026;2022-09-03T16:55:19;27.70;99.90
21207;DHT22;10761;48.532;8.026;2022-09-03T17:00:59;26.30;99.90
21207;DHT22;10761;48.532;8.026;2022-09-03T17:20:27;25.60;99.90
21207;DHT22;10761;48.532;8.026;2022-09-03T17:23:27;25.20;99.90
21207;DHT22;10761;48.532;8.026;2022-09-03T17:26:11;24.80;99.90
21207;DHT22;10761;48.532;8.026;2022-09-03T17:31:40;24.10;99.90
21207;DHT22;10761;48.532;8.026;2022-09-03T17:34:15;23.60;99.90
21207;DHT22;10761;48.532;8.026;2022-09-03T17:37:29;23.20;99.90
21207;DHT22;10761;48.532;8.026;2022-09-03T17:45:50;22.40;99.90
21207;DHT22;10761;48.532;8.026;2022-09-03T17:56:41;21.90;99.90
21207;DHT22;10761;48.532;8.026;2022-09-03T17:59:26;21.70;99.90
21207;DHT22;10761;48.532;8.026;2022-09-03T18:13:15;20.80;99.90
21207;DHT22;10761;48.532;8.026;2022-09-03T18:15:54;20.70;99.90
21207;DHT22;10761;48.532;8.026;2022-09-03T18:18:27;20.70;99.90
21207;DHT22;10761;48.532;8.026;2022-09-03T18:20:57;20.60;99.90
21207;DHT22;10761;48.532;8.026;2022-09-03T18:24:10;20.50;99.90
21207;DHT22;10761;48.532;8.026;2022-09-03T18:27:02;20.50;99.90
21207;DHT22;10761;48.532;8.026;2022-09-03T18:32:42;20.30;99.90
21207;DHT22;10761;48.532;8.026;2022-09-03T18:35:29;20.20;99.90
21207;DHT22;10761;48.532;8.026;2022-09-03T18:38:16;20.20;99.90
21207;DHT22;10761;48.532;8.026;2022-09-03T18:47:35;20.10;99.90
21207;DHT22;10761;48.532;8.026;2022-09-03T18:50:44;20.00;99.90
21207;DHT22;10761;48.532;8.026;2022-09-03T18:56:44;19.90;99.90
21207;DHT22;10761;48.532;8.026;2022-09-03T18:59:51;19.80;99.90
21207;DHT22;10761;48.532;8.026;2022-09-03T19:02:43;19.80;99.90
21207;DHT22;10761;48.532;8.026;2022-09-03T19:08:31;19.70;99.90
21207;DHT22;10761;48.532;8.026;2022-09-03T19:11:33;19.60;99.90
21207;DHT22;10761;48.532;8.026;2022-09-03T19:14:31;19.60;99.90
21207;DHT22;10761;48.532;8.026;2022-09-03T19:20:35;19.60;99.90
21207;DHT22;10761;48.532;8.026;2022-09-03T19:23:20;19.60;99.90
21207;DHT22;10761;48.532;8.026;2022-09-03T19:29:47;19.40;99.90
21207;DHT22;10761;48.532;8.026;2022-09-03T19:32:49;19.40;99.90
21207;DHT22;10761;48.532;8.026;2022-09-03T19:36:07;19.40;99.90
21207;DHT22;10761;48.532;8.026;2022-09-03T19:42:09;19.30;99.90
21207;DHT22;10761;48.532;8.026;2022-09-03T19:48:18;19.10;99.90
21207;DHT22;10761;48.532;8.026;2022-09-03T19:51:14;19.00;99.90
21207;DHT22;10761;48.532;8.026;2022-09-03T19:54:02;19.00;99.90
21207;DHT22;10761;48.532;8.026;2022-09-03T19:56:48;19.10;99.90
21207;DHT22;10761;48.532;8.026;2022-09-03T19:59:37;19.00;99.90
21207;DHT22;10761;48.532;8.026;2022-09-03T20:02:23;18.90;99.90
21207;DHT22;10761;48.532;8.026;2022-09-03T20:05:17;18.80;99.90
21207;DHT22;10761;48.532;8.026;2022-09-03T20:08:03;18.70;99.90
21207;DHT22;10761;48.532;8.026;2022-09-03T20:10:51;18.60;99.90
21207;DHT22;10761;48.532;8.026;2022-09-03T20:13:18;18.60;99.90
21207;DHT22;10761;48.532;8.026;2022-09-03T20:16:07;18.60;99.90
21207;DHT22;10761;48.532;8.026;2022-09-03T20:19:02;18.70;99.90
21207;DHT22;10761;48.532;8.026;2022-09-03T20:21:34;18.80;99.90
21207;DHT22;10761;48.532;8.026;2022-09-03T20:26:52;18.70;99.90
21207;DHT22;10761;48.532;8.026;2022-09-03T20:29:53;18.70;99.90
21207;DHT22;10761;48.532;8.026;2022-09-03T20:43:39;18.50;99.90
21207;DHT22;10761;48.532;8.026;2022-09-03T20:49:11;18.30;99.90
21207;DHT22;10761;48.532;8.026;2022-09-03T20:54:25;18.20;99.90
21207;DHT22;10761;48.532;8.026;2022-09-03T20:57:05;18.20;99.90
21207;DHT22;10761;48.532;8.026;2022-09-03T21:00:12;18.10;99.90
21207;DHT22;10761;48.532;8.026;2022-09-03T21:02:55;18.20;99.90
21207;DHT22;10761;48.532;8.026;2022-09-03T21:08:32;18.30;99.90
21207;DHT22;10761;48.532;8.026;2022-09-03T21:11:14;18.30;99.90
21207;DHT22;10761;48.532;8.026;2022-09-03T21:16:55;18.20;99.90
21207;DHT22;10761;48.532;8.026;2022-09-03T21:24:55;18.00;99.90
21207;DHT22;10761;48.532;8.026;2022-09-03T21:27:27;17.90;99.90
21207;DHT22;10761;48.532;8.026;2022-09-03T21:30:05;17.90;99.90
21207;DHT22;10761;48.532;8.026;2022-09-03T21:32:46;17.80;99.90
21207;DHT22;10761;48.532;8.026;2022-09-03T21:35:27;17.80;99.90
21207;DHT22;10761;48.532;8.026;2022-09-03T21:38:24;17.90;99.90
21207;DHT22;10761;48.532;8.026;2022-09-03T21:41:33;17.80;99.90
21207;DHT22;10761;48.532;8.026;2022-09-03T21:44:06;17.70;99.90
21207;DHT22;10761;48.532;8.026;2022-09-03T21:47:01;17.60;99.90
21207;DHT22;10761;48.532;8.026;2022-09-03T21:49:34;17.60;99.90
21207;DHT22;10761;48.532;8.026;2022-09-03T21:52:16;17.50;99.90
21207;DHT22;10761;48.532;8.026;2022-09-03T21:54:43;17.50;99.90
21207;DHT22;10761;48.532;8.026;2022-09-03T21:57:19;17.40;99.90
21207;DHT22;10761;48.532;8.026;2022-09-03T22:00:01;17.50;99.90
21207;DHT22;10761;48.532;8.026;2022-09-03T22:02:32;17.50;99.90
21207;DHT22;10761;48.532;8.026;2022-09-03T22:04:58;17.40;99.90
21207;DHT22;10761;48.532;8.026;2022-09-03T22:07:43;17.40;99.90
21207;DHT22;10761;48.532;8.026;2022-09-03T22:10:29;17.40;99.90
21207;DHT22;10761;48.532;8.026;2022-09-03T22:15:44;17.40;99.90
21207;DHT22;10761;48.532;8.026;2022-09-03T22:18:28;17.30;99.90
21207;DHT22;10761;48.532;8.026;2022-09-03T22:21:14;17.30;99.90
21207;DHT22;10761;48.532;8.026;2022-09-03T22:24:21;17.20;99.90
21207;DHT22;10761;48.532;8.026;2022-09-03T22:29:39;17.10;99.90
21207;DHT22;10761;48.532;8.026;2022-09-03T22:32:25;17.00;99.90
21207;DHT22;10761;48.532;8.026;2022-09-03T22:35:04;17.00;99.90
21207;DHT22;10761;48.532;8.026;2022-09-03T22:40:38;16.90;99.90
21207;DHT22;10761;48.532;8.026;2022-09-03T22:46:13;16.90;99.90
21207;DHT22;10761;48.532;8.026;2022-09-03T22:51:52;16.90;99.90
21207;DHT22;10761;48.532;8.026;2022-09-03T22:54:22;16.80;99.90
21207;DHT22;10761;48.532;8.026;2022-09-03T22:56:51;16.80;99.90
21207;DHT22;10761;48.532;8.026;2022-09-03T22:59:25;16.80;99.90
21207;DHT22;10761;48.532;8.026;2022-09-03T23:02:09;16.90;99.90
21207;DHT22;10761;48.532;8.026;2022-09-03T23:10:21;17.30;99.90
21207;DHT22;10761;48.532;8.026;2022-09-03T23:15:25;17.50;99.90
21207;DHT22;10761;48.532;8.026;2022-09-03T23:18:16;17.60;99.90
21207;DHT22;10761;48.532;8.026;2022-09-03T23:21:06;17.60;99.90
21207;DHT22;10761;48.532;8.026;2022-09-03T23:23:39;17.60;99.90
21207;DHT22;10761;48.532;8.026;2022-09-03T23:26:15;17.50;99.90
21207;DHT22;10761;48.532;8.026;2022-09-03T23:28:49;17.40;99.90
21207;DHT22;10761;48.532;8.026;2022-09-03T23:31:21;17.30;99.90
21207;DHT22;10761;48.532;8.026;2022-09-03T23:33:47;17.20;99.90
21207;DHT22;10761;48.532;8.026;2022-09-03T23:36:38;17.10;99.90
21207;DHT22;10761;48.532;8.026;2022-09-03T23:47:38;16.90;99.90
21207;DHT22;10761;48.532;8.026;2022-09-03T23:50:17;17.00;99.90
21207;DHT22;10761;48.532;8.026;2022-09-03T23:56:23;16.80;99.90
